sensor_id;sensor_type;location;lat;lon;timestamp;P1;durP1;ratioP1;P2;durP2;ratioP2
70467;SDS011;57934;51.532;7.684;2023-07-20T00:01:59;14.00;;;10.38;;
70467;SDS011;57934;51.532;7.684;2023-07-20T00:04:25;13.38;;;9.63;;
70467;SDS011;57934;51.532;7.684;2023-07-20T00:06:51;13.43;;;10.40;;
70467;SDS011;57934;51.532;7.684;2023-07-20T00:09:17;16.33;;;10.23;;
70467;SDS011;57934;51.532;7.684;2023-07-20T00:11:48;17.80;;;10.45;;
70467;SDS011;57934;51.532;7.684;2023-07-20T00:14:19;14.05;;;10.30;;
70467;SDS011;57934;51.532;7.684;2023-07-20T00:16:45;15.60;;;9.50;;
70467;SDS011;57934;51.532;7.684;2023-07-20T00:19:12;15.63;;;10.75;;
70467;SDS011;57934;51.532;7.684;2023-07-20T00:21:38;17.23;;;10.32;;
70467;SDS011;57934;51.532;7.684;2023-07-20T00:24:08;18.27;;;10.20;;
70467;SDS011;57934;51.532;7.684;2023-07-20T00:26:34;11.85;;;9.55;;
70467;SDS011;57934;51.532;7.684;2023-07-20T00:29:00;12.98;;;9.98;;
70467;SDS011;57934;51.532;7.684;2023-07-20T00:31:26;18.77;;;10.65;;
70467;SDS011;57934;51.532;7.684;2023-07-20T00:33:52;16.75;;;10.13;;
70467;SDS011;57934;51.532;7.684;2023-07-20T00:36:18;14.30;;;9.70;;
70467;SDS011;57934;51.532;7.684;2023-07-20T00:38:44;15.50;;;9.73;;
70467;SDS011;57934;51.532;7.684;2023-07-20T00:41:10;20.35;;;9.93;;
70467;SDS011;57934;51.532;7.684;2023-07-20T00:43:36;15.75;;;9.07;;
70467;SDS011;57934;51.532;7.684;2023-07-20T00:46:02;15.52;;;9.65;;
70467;SDS011;57934;51.532;7.684;2023-07-20T00:48:29;11.75;;;9.88;;
70467;SDS011;57934;51.532;7.684;2023-07-20T00:50:56;11.05;;;8.95;;
70467;SDS011;57934;51.532;7.684;2023-07-20T00:53:23;13.55;;;8.93;;
70467;SDS011;57934;51.532;7.684;2023-07-20T00:55:49;11.50;;;9.18;;
70467;SDS011;57934;51.532;7.684;2023-07-20T00:58:15;18.33;;;8.70;;
70467;SDS011;57934;51.532;7.684;2023-07-20T01:00:41;26.65;;;9.32;;
70467;SDS011;57934;51.532;7.684;2023-07-20T01:03:07;15.18;;;8.27;;
70467;SDS011;57934;51.532;7.684;2023-07-20T01:09:29;12.73;;;8.05;;
70467;SDS011;57934;51.532;7.684;2023-07-20T01:12:02;16.40;;;9.20;;
70467;SDS011;57934;51.532;7.684;2023-07-20T01:14:33;11.00;;;8.23;;
70467;SDS011;57934;51.532;7.684;2023-07-20T01:17:00;15.23;;;8.75;;
70467;SDS011;57934;51.532;7.684;2023-07-20T01:19:27;17.88;;;9.77;;
70467;SDS011;57934;51.532;7.684;2023-07-20T01:25:12;13.27;;;9.27;;
70467;SDS011;57934;51.532;7.684;2023-07-20T01:27:46;15.90;;;9.43;;
70467;SDS011;57934;51.532;7.684;2023-07-20T01:33:17;16.95;;;10.05;;
70467;SDS011;57934;51.532;7.684;2023-07-20T01:35:46;20.85;;;10.10;;
70467;SDS011;57934;51.532;7.684;2023-07-20T01:38:19;19.10;;;10.15;;
70467;SDS011;57934;51.532;7.684;2023-07-20T01:40:48;19.17;;;10.10;;
70467;SDS011;57934;51.532;7.684;2023-07-20T01:43:15;13.60;;;9.48;;
70467;SDS011;57934;51.532;7.684;2023-07-20T01:45:42;14.60;;;9.40;;
70467;SDS011;57934;51.532;7.684;2023-07-20T01:48:08;12.65;;;9.88;;
70467;SDS011;57934;51.532;7.684;2023-07-20T01:50:35;15.98;;;9.52;;
70467;SDS011;57934;51.532;7.684;2023-07-20T01:53:01;19.35;;;10.07;;
70467;SDS011;57934;51.532;7.684;2023-07-20T01:55:27;12.60;;;8.88;;
70467;SDS011;57934;51.532;7.684;2023-07-20T01:57:54;13.18;;;9.30;;
70467;SDS011;57934;51.532;7.684;2023-07-20T02:00:21;12.75;;;9.48;;
70467;SDS011;57934;51.532;7.684;2023-07-20T02:02:50;15.57;;;9.43;;
70467;SDS011;57934;51.532;7.684;2023-07-20T02:05:16;16.40;;;9.32;;
70467;SDS011;57934;51.532;7.684;2023-07-20T02:07:43;19.17;;;9.88;;
70467;SDS011;57934;51.532;7.684;2023-07-20T02:10:09;20.40;;;9.73;;
70467;SDS011;57934;51.532;7.684;2023-07-20T02:12:35;16.25;;;9.85;;
70467;SDS011;57934;51.532;7.684;2023-07-20T02:15:01;13.63;;;9.68;;
70467;SDS011;57934;51.532;7.684;2023-07-20T02:17:28;16.38;;;10.70;;
70467;SDS011;57934;51.532;7.684;2023-07-20T02:19:56;17.27;;;10.27;;
70467;SDS011;57934;51.532;7.684;2023-07-20T02:22:23;21.02;;;9.60;;
70467;SDS011;57934;51.532;7.684;2023-07-20T02:24:49;14.18;;;10.27;;
70467;SDS011;57934;51.532;7.684;2023-07-20T02:27:15;20.30;;;11.43;;
70467;SDS011;57934;51.532;7.684;2023-07-20T02:29:42;17.52;;;10.00;;
70467;SDS011;57934;51.532;7.684;2023-07-20T02:32:10;23.08;;;11.65;;
70467;SDS011;57934;51.532;7.684;2023-07-20T02:34:37;25.98;;;11.65;;
70467;SDS011;57934;51.532;7.684;2023-07-20T02:37:03;19.40;;;11.98;;
70467;SDS011;57934;51.532;7.684;2023-07-20T02:39:30;23.15;;;12.45;;
70467;SDS011;57934;51.532;7.684;2023-07-20T02:41:56;21.27;;;12.85;;
70467;SDS011;57934;51.532;7.684;2023-07-20T02:44:22;19.35;;;12.82;;
70467;SDS011;57934;51.532;7.684;2023-07-20T02:46:48;29.98;;;13.00;;
70467;SDS011;57934;51.532;7.684;2023-07-20T02:49:17;20.35;;;12.50;;
70467;SDS011;57934;51.532;7.684;2023-07-20T02:51:43;22.83;;;12.90;;
70467;SDS011;57934;51.532;7.684;2023-07-20T02:54:09;25.33;;;12.90;;
70467;SDS011;57934;51.532;7.684;2023-07-20T02:56:35;19.83;;;13.52;;
70467;SDS011;57934;51.532;7.684;2023-07-20T02:59:02;26.85;;;14.00;;
70467;SDS011;57934;51.532;7.684;2023-07-20T03:01:28;28.08;;;15.57;;
70467;SDS011;57934;51.532;7.684;2023-07-20T03:03:57;34.40;;;17.63;;
70467;SDS011;57934;51.532;7.684;2023-07-20T03:06:23;41.33;;;19.08;;
70467;SDS011;57934;51.532;7.684;2023-07-20T03:08:49;38.17;;;20.00;;
70467;SDS011;57934;51.532;7.684;2023-07-20T03:11:17;30.80;;;18.70;;
70467;SDS011;57934;51.532;7.684;2023-07-20T03:13:44;42.00;;;20.48;;
70467;SDS011;57934;51.532;7.684;2023-07-20T03:16:11;28.45;;;15.82;;
70467;SDS011;57934;51.532;7.684;2023-07-20T03:18:41;22.90;;;6.13;;
70467;SDS011;57934;51.532;7.684;2023-07-20T03:21:08;31.70;;;11.50;;
70467;SDS011;57934;51.532;7.684;2023-07-20T03:23:37;15.30;;;10.10;;
70467;SDS011;57934;51.532;7.684;2023-07-20T03:26:03;22.02;;;14.05;;
70467;SDS011;57934;51.532;7.684;2023-07-20T03:28:30;30.88;;;18.17;;
70467;SDS011;57934;51.532;7.684;2023-07-20T03:30:57;32.50;;;18.67;;
70467;SDS011;57934;51.532;7.684;2023-07-20T03:33:25;33.53;;;19.90;;
70467;SDS011;57934;51.532;7.684;2023-07-20T03:35:52;27.13;;;17.30;;
70467;SDS011;57934;51.532;7.684;2023-07-20T03:38:18;30.38;;;17.70;;
70467;SDS011;57934;51.532;7.684;2023-07-20T03:40:53;26.63;;;17.67;;
70467;SDS011;57934;51.532;7.684;2023-07-20T03:43:21;32.88;;;19.27;;
70467;SDS011;57934;51.532;7.684;2023-07-20T03:45:48;42.42;;;19.40;;
70467;SDS011;57934;51.532;7.684;2023-07-20T03:48:15;26.05;;;17.65;;
70467;SDS011;57934;51.532;7.684;2023-07-20T03:50:43;39.92;;;19.73;;
70467;SDS011;57934;51.532;7.684;2023-07-20T03:53:11;36.08;;;21.25;;
70467;SDS011;57934;51.532;7.684;2023-07-20T03:55:41;33.85;;;19.50;;
70467;SDS011;57934;51.532;7.684;2023-07-20T03:58:09;34.08;;;21.83;;
70467;SDS011;57934;51.532;7.684;2023-07-20T04:00:35;48.58;;;23.75;;
70467;SDS011;57934;51.532;7.684;2023-07-20T04:03:01;45.22;;;22.35;;
70467;SDS011;57934;51.532;7.684;2023-07-20T04:05:28;43.70;;;23.55;;
70467;SDS011;57934;51.532;7.684;2023-07-20T04:07:55;32.00;;;21.60;;
70467;SDS011;57934;51.532;7.684;2023-07-20T04:10:21;27.02;;;17.80;;
70467;SDS011;57934;51.532;7.684;2023-07-20T04:12:51;24.45;;;16.08;;
70467;SDS011;57934;51.532;7.684;2023-07-20T04:15:17;22.48;;;16.42;;
70467;SDS011;57934;51.532;7.684;2023-07-20T04:17:44;28.50;;;17.02;;
70467;SDS011;57934;51.532;7.684;2023-07-20T04:20:10;34.10;;;18.20;;
70467;SDS011;57934;51.532;7.684;2023-07-20T04:22:37;28.33;;;18.08;;
70467;SDS011;57934;51.532;7.684;2023-07-20T04:25:04;28.95;;;17.83;;
70467;SDS011;57934;51.532;7.684;2023-07-20T04:27:30;30.17;;;19.40;;
70467;SDS011;57934;51.532;7.684;2023-07-20T04:30:00;31.10;;;20.90;;
70467;SDS011;57934;51.532;7.684;2023-07-20T04:32:26;46.00;;;23.80;;
70467;SDS011;57934;51.532;7.684;2023-07-20T04:34:52;35.53;;;21.90;;
70467;SDS011;57934;51.532;7.684;2023-07-20T04:37:19;45.90;;;23.05;;
70467;SDS011;57934;51.532;7.684;2023-07-20T04:39:46;66.22;;;25.58;;
70467;SDS011;57934;51.532;7.684;2023-07-20T04:42:12;53.25;;;26.83;;
70467;SDS011;57934;51.532;7.684;2023-07-20T04:44:38;68.78;;;30.15;;
70467;SDS011;57934;51.532;7.684;2023-07-20T04:47:05;59.15;;;30.48;;
70467;SDS011;57934;51.532;7.684;2023-07-20T04:49:35;63.33;;;29.92;;
70467;SDS011;57934;51.532;7.684;2023-07-20T04:52:01;72.28;;;31.17;;
70467;SDS011;57934;51.532;7.684;2023-07-20T04:54:28;83.47;;;33.92;;
70467;SDS011;57934;51.532;7.684;2023-07-20T04:56:54;83.28;;;34.50;;
70467;SDS011;57934;51.532;7.684;2023-07-20T04:59:21;69.75;;;32.20;;
70467;SDS011;57934;51.532;7.684;2023-07-20T05:01:47;69.20;;;33.78;;
70467;SDS011;57934;51.532;7.684;2023-07-20T05:04:14;65.90;;;35.38;;
70467;SDS011;57934;51.532;7.684;2023-07-20T05:06:40;65.00;;;33.45;;
70467;SDS011;57934;51.532;7.684;2023-07-20T05:09:06;63.90;;;33.60;;
70467;SDS011;57934;51.532;7.684;2023-07-20T05:11:33;55.30;;;31.52;;
70467;SDS011;57934;51.532;7.684;2023-07-20T05:13:59;54.45;;;31.45;;
70467;SDS011;57934;51.532;7.684;2023-07-20T05:16:26;57.80;;;33.22;;
70467;SDS011;57934;51.532;7.684;2023-07-20T05:18:53;50.75;;;29.98;;
70467;SDS011;57934;51.532;7.684;2023-07-20T05:21:19;52.03;;;30.83;;
70467;SDS011;57934;51.532;7.684;2023-07-20T05:23:45;52.90;;;31.23;;
70467;SDS011;57934;51.532;7.684;2023-07-20T05:26:13;48.17;;;30.45;;
70467;SDS011;57934;51.532;7.684;2023-07-20T05:28:39;48.17;;;27.55;;
70467;SDS011;57934;51.532;7.684;2023-07-20T05:31:05;49.28;;;27.17;;
70467;SDS011;57934;51.532;7.684;2023-07-20T05:33:32;38.47;;;25.92;;
70467;SDS011;57934;51.532;7.684;2023-07-20T05:35:58;34.40;;;23.45;;
70467;SDS011;57934;51.532;7.684;2023-07-20T05:38:24;31.80;;;21.17;;
70467;SDS011;57934;51.532;7.684;2023-07-20T05:40:49;26.55;;;21.02;;
70467;SDS011;57934;51.532;7.684;2023-07-20T05:43:15;24.95;;;19.23;;
70467;SDS011;57934;51.532;7.684;2023-07-20T05:45:42;25.80;;;18.23;;
70467;SDS011;57934;51.532;7.684;2023-07-20T05:48:08;24.40;;;17.30;;
70467;SDS011;57934;51.532;7.684;2023-07-20T05:50:42;22.50;;;15.65;;
70467;SDS011;57934;51.532;7.684;2023-07-20T05:53:09;16.23;;;13.93;;
70467;SDS011;57934;51.532;7.684;2023-07-20T05:55:35;14.15;;;12.65;;
70467;SDS011;57934;51.532;7.684;2023-07-20T05:58:01;14.68;;;11.80;;
70467;SDS011;57934;51.532;7.684;2023-07-20T06:00:27;13.45;;;11.93;;
70467;SDS011;57934;51.532;7.684;2023-07-20T06:02:53;14.80;;;12.25;;
70467;SDS011;57934;51.532;7.684;2023-07-20T06:05:21;14.48;;;12.02;;
70467;SDS011;57934;51.532;7.684;2023-07-20T06:07:49;15.70;;;12.95;;
70467;SDS011;57934;51.532;7.684;2023-07-20T06:10:20;14.60;;;12.45;;
70467;SDS011;57934;51.532;7.684;2023-07-20T06:12:46;13.73;;;12.15;;
70467;SDS011;57934;51.532;7.684;2023-07-20T06:15:28;14.15;;;11.63;;
70467;SDS011;57934;51.532;7.684;2023-07-20T06:17:56;12.68;;;11.45;;
70467;SDS011;57934;51.532;7.684;2023-07-20T06:20:24;13.60;;;11.38;;
70467;SDS011;57934;51.532;7.684;2023-07-20T06:22:50;11.55;;;10.38;;
70467;SDS011;57934;51.532;7.684;2023-07-20T06:25:16;12.73;;;11.43;;
70467;SDS011;57934;51.532;7.684;2023-07-20T06:27:42;13.82;;;12.20;;
70467;SDS011;57934;51.532;7.684;2023-07-20T06:30:09;17.42;;;11.60;;
70467;SDS011;57934;51.532;7.684;2023-07-20T06:32:35;16.13;;;10.75;;
70467;SDS011;57934;51.532;7.684;2023-07-20T06:35:01;10.85;;;9.75;;
70467;SDS011;57934;51.532;7.684;2023-07-20T06:37:27;10.52;;;9.38;;
70467;SDS011;57934;51.532;7.684;2023-07-20T06:39:53;13.43;;;10.15;;
70467;SDS011;57934;51.532;7.684;2023-07-20T06:42:19;10.38;;;9.48;;
70467;SDS011;57934;51.532;7.684;2023-07-20T06:44:45;10.95;;;9.63;;
70467;SDS011;57934;51.532;7.684;2023-07-20T06:47:11;12.88;;;8.93;;
70467;SDS011;57934;51.532;7.684;2023-07-20T06:49:38;11.88;;;9.00;;
70467;SDS011;57934;51.532;7.684;2023-07-20T06:52:04;10.02;;;8.98;;
70467;SDS011;57934;51.532;7.684;2023-07-20T06:54:30;10.82;;;9.35;;
70467;SDS011;57934;51.532;7.684;2023-07-20T06:56:56;11.80;;;8.98;;
70467;SDS011;57934;51.532;7.684;2023-07-20T06:59:22;9.68;;;8.75;;
70467;SDS011;57934;51.532;7.684;2023-07-20T07:01:49;8.45;;;7.75;;
70467;SDS011;57934;51.532;7.684;2023-07-20T07:04:15;8.18;;;7.40;;
70467;SDS011;57934;51.532;7.684;2023-07-20T07:06:41;8.40;;;6.55;;
70467;SDS011;57934;51.532;7.684;2023-07-20T07:09:08;7.47;;;6.78;;
70467;SDS011;57934;51.532;7.684;2023-07-20T07:11:34;7.50;;;5.93;;
70467;SDS011;57934;51.532;7.684;2023-07-20T07:14:00;6.57;;;5.97;;
70467;SDS011;57934;51.532;7.684;2023-07-20T07:16:26;7.22;;;5.40;;
70467;SDS011;57934;51.532;7.684;2023-07-20T07:18:52;4.45;;;4.05;;
70467;SDS011;57934;51.532;7.684;2023-07-20T07:21:18;4.80;;;4.40;;
70467;SDS011;57934;51.532;7.684;2023-07-20T07:23:44;5.20;;;4.60;;
70467;SDS011;57934;51.532;7.684;2023-07-20T07:26:11;3.95;;;3.55;;
70467;SDS011;57934;51.532;7.684;2023-07-20T07:28:37;3.50;;;2.90;;
70467;SDS011;57934;51.532;7.684;2023-07-20T07:31:06;2.60;;;2.40;;
70467;SDS011;57934;51.532;7.684;2023-07-20T07:33:32;2.65;;;2.05;;
70467;SDS011;57934;51.532;7.684;2023-07-20T07:35:58;3.58;;;2.35;;
70467;SDS011;57934;51.532;7.684;2023-07-20T07:38:24;2.95;;;2.05;;
70467;SDS011;57934;51.532;7.684;2023-07-20T07:40:50;2.28;;;2.03;;
70467;SDS011;57934;51.532;7.684;2023-07-20T07:43:16;3.75;;;2.45;;
70467;SDS011;57934;51.532;7.684;2023-07-20T07:45:42;2.13;;;2.00;;
70467;SDS011;57934;51.532;7.684;2023-07-20T07:48:08;2.40;;;2.00;;
70467;SDS011;57934;51.532;7.684;2023-07-20T07:50:37;2.72;;;2.53;;
70467;SDS011;57934;51.532;7.684;2023-07-20T07:53:03;2.85;;;2.65;;
70467;SDS011;57934;51.532;7.684;2023-07-20T07:55:29;2.10;;;1.90;;
70467;SDS011;57934;51.532;7.684;2023-07-20T07:57:55;2.92;;;2.30;;
70467;SDS011;57934;51.532;7.684;2023-07-20T08:00:21;2.60;;;2.38;;
70467;SDS011;57934;51.532;7.684;2023-07-20T08:02:47;2.72;;;2.00;;
70467;SDS011;57934;51.532;7.684;2023-07-20T08:05:14;2.05;;;1.77;;
70467;SDS011;57934;51.532;7.684;2023-07-20T08:07:40;2.88;;;2.10;;
70467;SDS011;57934;51.532;7.684;2023-07-20T08:10:06;2.65;;;2.45;;
70467;SDS011;57934;51.532;7.684;2023-07-20T08:12:32;2.97;;;2.50;;
70467;SDS011;57934;51.532;7.684;2023-07-20T08:14:58;4.15;;;2.40;;
70467;SDS011;57934;51.532;7.684;2023-07-20T08:17:25;2.45;;;1.83;;
70467;SDS011;57934;51.532;7.684;2023-07-20T08:19:51;2.53;;;2.00;;
70467;SDS011;57934;51.532;7.684;2023-07-20T08:22:17;3.40;;;1.80;;
70467;SDS011;57934;51.532;7.684;2023-07-20T08:24:43;1.90;;;1.63;;
70467;SDS011;57934;51.532;7.684;2023-07-20T08:27:09;1.60;;;1.50;;
70467;SDS011;57934;51.532;7.684;2023-07-20T08:29:35;2.78;;;1.33;;
70467;SDS011;57934;51.532;7.684;2023-07-20T08:32:02;2.30;;;1.40;;
70467;SDS011;57934;51.532;7.684;2023-07-20T08:34:29;1.90;;;1.42;;
70467;SDS011;57934;51.532;7.684;2023-07-20T08:36:56;2.90;;;1.48;;
70467;SDS011;57934;51.532;7.684;2023-07-20T08:39:23;1.95;;;0.90;;
70467;SDS011;57934;51.532;7.684;2023-07-20T08:41:49;1.63;;;0.98;;
70467;SDS011;57934;51.532;7.684;2023-07-20T08:44:15;2.38;;;1.08;;
70467;SDS011;57934;51.532;7.684;2023-07-20T08:46:42;2.05;;;0.70;;
70467;SDS011;57934;51.532;7.684;2023-07-20T08:49:09;2.75;;;1.10;;
70467;SDS011;57934;51.532;7.684;2023-07-20T08:51:36;1.85;;;0.90;;
70467;SDS011;57934;51.532;7.684;2023-07-20T08:54:03;0.98;;;0.70;;
70467;SDS011;57934;51.532;7.684;2023-07-20T08:56:29;0.80;;;0.75;;
70467;SDS011;57934;51.532;7.684;2023-07-20T08:58:59;2.05;;;1.42;;
70467;SDS011;57934;51.532;7.684;2023-07-20T09:01:25;1.95;;;1.13;;
70467;SDS011;57934;51.532;7.684;2023-07-20T09:03:52;1.08;;;0.82;;
70467;SDS011;57934;51.532;7.684;2023-07-20T09:06:18;0.88;;;0.88;;
70467;SDS011;57934;51.532;7.684;2023-07-20T09:08:45;0.73;;;0.57;;
70467;SDS011;57934;51.532;7.684;2023-07-20T09:11:11;1.20;;;0.80;;
70467;SDS011;57934;51.532;7.684;2023-07-20T09:13:37;1.42;;;0.80;;
70467;SDS011;57934;51.532;7.684;2023-07-20T09:16:04;1.80;;;0.70;;
70467;SDS011;57934;51.532;7.684;2023-07-20T09:18:31;4.35;;;0.82;;
70467;SDS011;57934;51.532;7.684;2023-07-20T09:20:58;2.30;;;0.60;;
70467;SDS011;57934;51.532;7.684;2023-07-20T09:23:30;1.23;;;0.70;;
70467;SDS011;57934;51.532;7.684;2023-07-20T09:26:09;0.60;;;0.60;;
70467;SDS011;57934;51.532;7.684;2023-07-20T09:28:51;2.63;;;0.60;;
70467;SDS011;57934;51.532;7.684;2023-07-20T09:31:19;1.52;;;0.70;;
70467;SDS011;57934;51.532;7.684;2023-07-20T09:33:46;2.40;;;0.80;;
70467;SDS011;57934;51.532;7.684;2023-07-20T09:36:12;0.98;;;0.65;;
70467;SDS011;57934;51.532;7.684;2023-07-20T09:38:42;1.63;;;0.95;;
70467;SDS011;57934;51.532;7.684;2023-07-20T09:41:12;0.90;;;0.63;;
70467;SDS011;57934;51.532;7.684;2023-07-20T09:43:40;1.17;;;0.82;;
70467;SDS011;57934;51.532;7.684;2023-07-20T09:46:08;1.05;;;0.77;;
70467;SDS011;57934;51.532;7.684;2023-07-20T09:48:34;0.90;;;0.63;;
70467;SDS011;57934;51.532;7.684;2023-07-20T09:51:00;1.95;;;0.60;;
70467;SDS011;57934;51.532;7.684;2023-07-20T09:53:27;0.52;;;0.50;;
70467;SDS011;57934;51.532;7.684;2023-07-20T09:55:54;3.15;;;0.80;;
70467;SDS011;57934;51.532;7.684;2023-07-20T09:58:21;1.55;;;0.50;;
70467;SDS011;57934;51.532;7.684;2023-07-20T10:00:48;0.80;;;0.50;;
70467;SDS011;57934;51.532;7.684;2023-07-20T10:03:21;1.02;;;0.70;;
70467;SDS011;57934;51.532;7.684;2023-07-20T10:05:51;0.50;;;0.50;;
70467;SDS011;57934;51.532;7.684;2023-07-20T10:08:25;1.50;;;0.65;;
70467;SDS011;57934;51.532;7.684;2023-07-20T10:10:55;3.13;;;0.80;;
70467;SDS011;57934;51.532;7.684;2023-07-20T10:13:29;1.02;;;0.80;;
70467;SDS011;57934;51.532;7.684;2023-07-20T10:18:50;2.30;;;1.42;;
70467;SDS011;57934;51.532;7.684;2023-07-20T10:21:30;0.82;;;0.82;;
70467;SDS011;57934;51.532;7.684;2023-07-20T10:23:59;1.20;;;1.10;;
70467;SDS011;57934;51.532;7.684;2023-07-20T10:26:26;2.38;;;1.40;;
70467;SDS011;57934;51.532;7.684;2023-07-20T10:28:52;1.50;;;1.40;;
70467;SDS011;57934;51.532;7.684;2023-07-20T10:31:19;3.10;;;1.60;;
70467;SDS011;57934;51.532;7.684;2023-07-20T10:33:45;2.05;;;1.85;;
70467;SDS011;57934;51.532;7.684;2023-07-20T10:36:12;1.45;;;1.35;;
70467;SDS011;57934;51.532;7.684;2023-07-20T10:38:38;2.30;;;1.88;;
70467;SDS011;57934;51.532;7.684;2023-07-20T10:43:58;1.75;;;1.65;;
70467;SDS011;57934;51.532;7.684;2023-07-20T10:49:10;1.95;;;1.50;;
70467;SDS011;57934;51.532;7.684;2023-07-20T10:51:43;1.20;;;1.17;;
70467;SDS011;57934;51.532;7.684;2023-07-20T10:56:43;1.25;;;1.23;;
70467;SDS011;57934;51.532;7.684;2023-07-20T11:01:54;1.00;;;1.00;;
70467;SDS011;57934;51.532;7.684;2023-07-20T11:04:40;1.00;;;0.90;;
70467;SDS011;57934;51.532;7.684;2023-07-20T11:07:07;2.20;;;1.00;;
70467;SDS011;57934;51.532;7.684;2023-07-20T11:09:34;0.80;;;0.70;;
70467;SDS011;57934;51.532;7.684;2023-07-20T11:12:13;0.73;;;0.73;;
70467;SDS011;57934;51.532;7.684;2023-07-20T11:14:44;0.80;;;0.80;;
70467;SDS011;57934;51.532;7.684;2023-07-20T11:17:19;2.45;;;0.50;;
70467;SDS011;57934;51.532;7.684;2023-07-20T11:19:48;0.63;;;0.40;;
70467;SDS011;57934;51.532;7.684;2023-07-20T11:22:18;0.50;;;0.50;;
70467;SDS011;57934;51.532;7.684;2023-07-20T11:24:45;1.40;;;0.60;;
70467;SDS011;57934;51.532;7.684;2023-07-20T11:27:11;4.65;;;0.90;;
70467;SDS011;57934;51.532;7.684;2023-07-20T11:29:37;0.60;;;0.60;;
70467;SDS011;57934;51.532;7.684;2023-07-20T11:32:03;1.33;;;0.70;;
70467;SDS011;57934;51.532;7.684;2023-07-20T11:34:30;1.00;;;0.70;;
70467;SDS011;57934;51.532;7.684;2023-07-20T11:36:57;1.65;;;0.98;;
70467;SDS011;57934;51.532;7.684;2023-07-20T11:39:24;1.27;;;0.85;;
70467;SDS011;57934;51.532;7.684;2023-07-20T11:41:54;2.15;;;0.65;;
70467;SDS011;57934;51.532;7.684;2023-07-20T11:44:21;1.10;;;0.90;;
70467;SDS011;57934;51.532;7.684;2023-07-20T11:49:43;0.80;;;0.80;;
70467;SDS011;57934;51.532;7.684;2023-07-20T11:52:15;1.35;;;0.68;;
70467;SDS011;57934;51.532;7.684;2023-07-20T11:54:42;0.70;;;0.70;;
70467;SDS011;57934;51.532;7.684;2023-07-20T11:57:18;2.30;;;1.00;;
70467;SDS011;57934;51.532;7.684;2023-07-20T11:59:55;0.73;;;0.55;;
70467;SDS011;57934;51.532;7.684;2023-07-20T12:02:27;2.58;;;0.65;;
70467;SDS011;57934;51.532;7.684;2023-07-20T12:04:53;1.83;;;0.60;;
70467;SDS011;57934;51.532;7.684;2023-07-20T12:07:20;0.82;;;0.63;;
70467;SDS011;57934;51.532;7.684;2023-07-20T12:10:03;0.40;;;0.40;;
70467;SDS011;57934;51.532;7.684;2023-07-20T12:12:43;0.82;;;0.60;;
70467;SDS011;57934;51.532;7.684;2023-07-20T12:15:17;1.05;;;0.85;;
70467;SDS011;57934;51.532;7.684;2023-07-20T12:17:43;1.08;;;0.88;;
70467;SDS011;57934;51.532;7.684;2023-07-20T12:20:24;2.08;;;0.93;;
70467;SDS011;57934;51.532;7.684;2023-07-20T12:22:52;1.00;;;0.80;;
70467;SDS011;57934;51.532;7.684;2023-07-20T12:25:18;1.42;;;0.65;;
70467;SDS011;57934;51.532;7.684;2023-07-20T12:27:45;1.00;;;0.60;;
70467;SDS011;57934;51.532;7.684;2023-07-20T12:30:12;0.60;;;0.60;;
70467;SDS011;57934;51.532;7.684;2023-07-20T12:32:39;0.60;;;0.50;;
70467;SDS011;57934;51.532;7.684;2023-07-20T12:35:05;0.60;;;0.60;;
70467;SDS011;57934;51.532;7.684;2023-07-20T12:37:32;0.70;;;0.70;;
70467;SDS011;57934;51.532;7.684;2023-07-20T12:39:58;0.40;;;0.40;;
70467;SDS011;57934;51.532;7.684;2023-07-20T12:42:24;2.72;;;0.50;;
70467;SDS011;57934;51.532;7.684;2023-07-20T12:44:50;0.60;;;0.60;;
70467;SDS011;57934;51.532;7.684;2023-07-20T12:47:17;2.45;;;1.02;;
70467;SDS011;57934;51.532;7.684;2023-07-20T12:49:44;1.98;;;1.00;;
70467;SDS011;57934;51.532;7.684;2023-07-20T12:52:11;1.13;;;1.02;;
70467;SDS011;57934;51.532;7.684;2023-07-20T12:54:37;1.80;;;0.70;;
70467;SDS011;57934;51.532;7.684;2023-07-20T12:57:03;0.70;;;0.70;;
70467;SDS011;57934;51.532;7.684;2023-07-20T12:59:29;0.82;;;0.82;;
70467;SDS011;57934;51.532;7.684;2023-07-20T13:01:55;0.90;;;0.77;;
70467;SDS011;57934;51.532;7.684;2023-07-20T13:04:21;1.75;;;0.68;;
70467;SDS011;57934;51.532;7.684;2023-07-20T13:06:47;1.80;;;0.93;;
70467;SDS011;57934;51.532;7.684;2023-07-20T13:09:13;1.10;;;0.55;;
70467;SDS011;57934;51.532;7.684;2023-07-20T13:11:38;1.23;;;0.70;;
70467;SDS011;57934;51.532;7.684;2023-07-20T13:14:04;1.15;;;0.80;;
70467;SDS011;57934;51.532;7.684;2023-07-20T13:16:30;1.90;;;1.00;;
70467;SDS011;57934;51.532;7.684;2023-07-20T13:18:56;4.28;;;1.00;;
70467;SDS011;57934;51.532;7.684;2023-07-20T13:21:23;1.88;;;0.70;;
70467;SDS011;57934;51.532;7.684;2023-07-20T13:23:50;1.67;;;0.75;;
70467;SDS011;57934;51.532;7.684;2023-07-20T13:26:16;0.85;;;0.80;;
70467;SDS011;57934;51.532;7.684;2023-07-20T13:28:42;10.13;;;1.00;;
70467;SDS011;57934;51.532;7.684;2023-07-20T13:31:08;0.70;;;0.60;;
70467;SDS011;57934;51.532;7.684;2023-07-20T13:33:36;0.80;;;0.80;;
70467;SDS011;57934;51.532;7.684;2023-07-20T13:36:02;2.75;;;0.80;;
70467;SDS011;57934;51.532;7.684;2023-07-20T13:38:31;1.08;;;0.80;;
70467;SDS011;57934;51.532;7.684;2023-07-20T13:40:57;3.33;;;0.80;;
70467;SDS011;57934;51.532;7.684;2023-07-20T13:43:23;2.03;;;0.90;;
70467;SDS011;57934;51.532;7.684;2023-07-20T13:45:49;2.28;;;0.80;;
70467;SDS011;57934;51.532;7.684;2023-07-20T13:48:15;1.48;;;0.70;;
70467;SDS011;57934;51.532;7.684;2023-07-20T13:50:42;0.70;;;0.70;;
70467;SDS011;57934;51.532;7.684;2023-07-20T13:53:08;0.63;;;0.63;;
70467;SDS011;57934;51.532;7.684;2023-07-20T13:55:34;2.10;;;0.90;;
70467;SDS011;57934;51.532;7.684;2023-07-20T13:58:02;0.80;;;0.80;;
70467;SDS011;57934;51.532;7.684;2023-07-20T14:00:28;0.65;;;0.60;;
70467;SDS011;57934;51.532;7.684;2023-07-20T14:02:58;0.82;;;0.80;;
70467;SDS011;57934;51.532;7.684;2023-07-20T14:05:24;1.67;;;0.70;;
70467;SDS011;57934;51.532;7.684;2023-07-20T14:07:51;1.90;;;0.70;;
70467;SDS011;57934;51.532;7.684;2023-07-20T14:10:17;2.20;;;0.60;;
70467;SDS011;57934;51.532;7.684;2023-07-20T14:12:43;1.80;;;0.70;;
70467;SDS011;57934;51.532;7.684;2023-07-20T14:15:10;0.88;;;0.70;;
70467;SDS011;57934;51.532;7.684;2023-07-20T14:17:36;2.67;;;0.80;;
70467;SDS011;57934;51.532;7.684;2023-07-20T14:20:02;1.15;;;0.60;;
70467;SDS011;57934;51.532;7.684;2023-07-20T14:22:32;0.80;;;0.60;;
70467;SDS011;57934;51.532;7.684;2023-07-20T14:24:58;0.55;;;0.50;;
70467;SDS011;57934;51.532;7.684;2023-07-20T14:27:24;1.95;;;0.60;;
70467;SDS011;57934;51.532;7.684;2023-07-20T14:29:50;1.58;;;1.17;;
70467;SDS011;57934;51.532;7.684;2023-07-20T14:32:16;1.05;;;0.63;;
70467;SDS011;57934;51.532;7.684;2023-07-20T14:34:42;3.15;;;0.82;;
70467;SDS011;57934;51.532;7.684;2023-07-20T14:37:08;1.63;;;0.60;;
70467;SDS011;57934;51.532;7.684;2023-07-20T14:39:34;1.33;;;0.80;;
70467;SDS011;57934;51.532;7.684;2023-07-20T14:42:00;0.80;;;0.80;;
70467;SDS011;57934;51.532;7.684;2023-07-20T14:44:27;0.70;;;0.70;;
70467;SDS011;57934;51.532;7.684;2023-07-20T14:46:53;0.68;;;0.68;;
70467;SDS011;57934;51.532;7.684;2023-07-20T14:49:20;0.52;;;0.50;;
70467;SDS011;57934;51.532;7.684;2023-07-20T14:51:45;0.55;;;0.50;;
70467;SDS011;57934;51.532;7.684;2023-07-20T14:54:12;2.40;;;2.20;;
70467;SDS011;57934;51.532;7.684;2023-07-20T14:56:39;1.40;;;1.30;;
70467;SDS011;57934;51.532;7.684;2023-07-20T14:59:16;0.88;;;0.75;;
70467;SDS011;57934;51.532;7.684;2023-07-20T15:01:43;0.75;;;0.50;;
70467;SDS011;57934;51.532;7.684;2023-07-20T15:04:14;1.58;;;0.80;;
70467;SDS011;57934;51.532;7.684;2023-07-20T15:06:41;0.60;;;0.60;;